Time;durP1;ratioP1;P1;durP2;ratioP2;P2;SDS_P1;SDS_P2;PMS_P1;PMS_P2;Temp;Humidity;BMP_temperature;BMP_pressure;BME280_temperature;BME280_humidity;BME280_pressure;Samples;Min_cycle;Max_cycle;Signal;HPM_P1;HPM_P2
2021/05/17 00:00:37;;;;;;;1.33;0.77;;;17.40;53.20;;;;;;5033852;28;20083;-68
2021/05/17 00:03:04;;;;;;;1.55;0.70;;;17.40;53.30;;;;;;5024736;28;20030;-68
2021/05/17 00:05:30;;;;;;;1.17;0.60;;;17.40;53.20;;;;;;5033670;28;20025;-68
2021/05/17 00:07:57;;;;;;;0.52;0.50;;;17.40;53.20;;;;;;5027651;28;20021;-68
2021/05/17 00:10:23;;;;;;;1.08;0.52;;;17.40;53.10;;;;;;5013850;28;20033;-68
2021/05/17 00:12:49;;;;;;;2.65;0.70;;;17.40;53.20;;;;;;5013622;28;20045;-68
2021/05/17 00:15:18;;;;;;;1.80;0.85;;;17.40;53.30;;;;;;5013848;28;20057;-68
2021/05/17 00:17:45;;;;;;;1.65;0.70;;;17.40;53.20;;;;;;5017843;28;20033;-68
2021/05/17 00:20:13;;;;;;;4.07;0.70;;;17.40;53.30;;;;;;5033521;28;20030;-68
2021/05/17 00:22:39;;;;;;;4.70;0.70;;;17.30;53.20;;;;;;5033363;28;20033;-69
2021/05/17 00:25:06;;;;;;;1.10;0.52;;;17.30;53.00;;;;;;5025072;28;20030;-68
2021/05/17 00:27:32;;;;;;;1.33;0.52;;;17.30;53.10;;;;;;5013633;28;20480;-68
2021/05/17 00:29:58;;;;;;;1.42;0.70;;;17.30;53.50;;;;;;5013681;28;20030;-68
2021/05/17 00:32:24;;;;;;;1.13;0.55;;;17.20;53.70;;;;;;5015125;28;20026;-68
2021/05/17 00:34:50;;;;;;;0.52;0.50;;;17.20;53.70;;;;;;5031683;28;20044;-67
2021/05/17 00:37:16;;;;;;;1.27;0.75;;;17.20;53.50;;;;;;5033243;28;20030;-68
2021/05/17 00:39:43;;;;;;;1.02;0.55;;;17.20;53.90;;;;;;5033187;28;20550;-68
2021/05/17 00:42:10;;;;;;;1.10;0.60;;;17.20;54.00;;;;;;5027068;28;20480;-68
2021/05/17 00:44:41;;;;;;;1.88;0.68;;;17.10;54.20;;;;;;5013331;28;20041;-68
2021/05/17 00:47:13;;;;;;;2.83;0.60;;;17.10;54.30;;;;;;5013422;28;20041;-68
2021/05/17 00:49:40;;;;;;;1.90;0.50;;;17.10;54.20;;;;;;5013143;28;20042;-68
2021/05/17 00:52:07;;;;;;;1.55;0.65;;;17.10;54.30;;;;;;5013361;28;20022;-68
2021/05/17 00:54:33;;;;;;;1.75;0.60;;;17.00;54.40;;;;;;5013211;28;20113;-68
2021/05/17 00:56:59;;;;;;;3.65;0.90;;;17.00;54.50;;;;;;5031015;28;20108;-68
2021/05/17 00:59:25;;;;;;;1.67;0.80;;;17.00;54.90;;;;;;5019798;28;20483;-68
2021/05/17 01:01:51;;;;;;;2.15;0.77;;;16.90;54.90;;;;;;5019718;28;20113;-68
2021/05/17 01:04:16;;;;;;;2.05;0.80;;;16.90;55.10;;;;;;5019966;28;20101;-68
2021/05/17 01:06:46;;;;;;;2.95;0.80;;;16.90;55.10;;;;;;5019665;28;20411;-68
2021/05/17 01:09:13;;;;;;;2.92;0.80;;;16.80;55.50;;;;;;5019794;28;20110;-68
2021/05/17 01:11:39;;;;;;;1.10;0.82;;;16.80;55.40;;;;;;5018290;28;20383;-68
2021/05/17 01:14:07;;;;;;;0.88;0.52;;;16.80;55.50;;;;;;5019678;28;20033;-68
2021/05/17 01:16:33;;;;;;;0.90;0.68;;;16.70;55.50;;;;;;5019673;28;20046;-68
2021/05/17 01:19:00;;;;;;;1.77;0.70;;;16.70;55.40;;;;;;5033792;28;20040;-68
2021/05/17 01:21:31;;;;;;;4.10;0.90;;;16.70;55.70;;;;;;5039399;28;20029;-68
2021/05/17 01:23:57;;;;;;;3.95;0.82;;;16.60;55.80;;;;;;5027640;28;20025;-68
2021/05/17 01:26:25;;;;;;;2.58;0.93;;;16.60;56.00;;;;;;5019446;28;20025;-68
2021/05/17 01:29:02;;;;;;;4.97;0.80;;;16.50;56.10;;;;;;5022479;28;20021;-68
2021/05/17 01:31:27;;;;;;;4.50;1.55;;;16.50;56.50;;;;;;5027938;28;20483;-68
2021/05/17 01:33:54;;;;;;;3.53;1.42;;;16.50;56.70;;;;;;5018530;28;20033;-68
2021/05/17 01:36:20;;;;;;;2.78;1.13;;;16.40;56.70;;;;;;5019094;28;20032;-68
2021/05/17 01:38:52;;;;;;;4.43;1.20;;;16.40;57.10;;;;;;5027235;28;20030;-68
2021/05/17 01:41:23;;;;;;;1.92;1.17;;;16.30;57.40;;;;;;5039246;28;20037;-68
2021/05/17 01:43:54;;;;;;;2.03;0.95;;;16.30;57.70;;;;;;5038895;28;20387;-69
2021/05/17 01:46:26;;;;;;;1.45;0.90;;;16.20;57.80;;;;;;5037944;28;20454;-68
2021/05/17 01:48:54;;;;;;;3.53;1.00;;;16.20;57.70;;;;;;5028591;28;20022;-68
2021/05/17 01:51:20;;;;;;;5.45;0.93;;;16.20;57.70;;;;;;5036965;28;20375;-68
2021/05/17 01:53:48;;;;;;;3.17;0.93;;;16.20;57.80;;;;;;5034635;28;20014;-68
2021/05/17 01:56:16;;;;;;;1.35;0.80;;;16.10;57.80;;;;;;5019373;28;20050;-68
2021/05/17 01:58:42;;;;;;;1.58;1.00;;;16.10;57.80;;;;;;5019256;28;20034;-68
2021/05/17 02:01:15;;;;;;;1.00;0.65;;;16.10;57.80;;;;;;5019279;28;20028;-68
2021/05/17 02:03:44;;;;;;;2.35;0.88;;;16.10;57.80;;;;;;5025853;28;20033;-68
2021/05/17 02:06:12;;;;;;;1.83;0.60;;;16.00;57.60;;;;;;5052318;28;20068;-68
2021/05/17 02:08:46;;;;;;;1.52;0.68;;;16.00;57.30;;;;;;5036576;28;20033;-68
2021/05/17 02:11:13;;;;;;;1.48;0.70;;;16.00;56.90;;;;;;5028536;28;20068;-68
2021/05/17 02:13:40;;;;;;;6.80;0.60;;;16.00;56.60;;;;;;5016095;28;20026;-68
2021/05/17 02:16:08;;;;;;;1.58;0.73;;;16.00;56.60;;;;;;5015978;28;20032;-68
2021/05/17 02:18:38;;;;;;;3.40;0.70;;;16.10;56.60;;;;;;5015854;28;20034;-68
2021/05/17 02:21:05;;;;;;;2.35;0.73;;;16.10;56.70;;;;;;5014608;28;20064;-68
2021/05/17 02:23:31;;;;;;;1.58;0.57;;;16.10;56.70;;;;;;5015841;28;20032;-68
2021/05/17 02:25:57;;;;;;;0.98;0.65;;;16.10;56.50;;;;;;5015877;28;20030;-68
2021/05/17 02:28:23;;;;;;;1.00;0.47;;;16.20;56.60;;;;;;5015771;28;20022;-68
2021/05/17 02:30:49;;;;;;;1.45;0.60;;;16.20;56.80;;;;;;5015592;28;20117;-68
2021/05/17 02:33:17;;;;;;;1.05;0.50;;;16.20;56.80;;;;;;5015833;28;20436;-68
2021/05/17 02:35:43;;;;;;;2.28;0.63;;;16.30;56.90;;;;;;5015578;28;20468;-68
2021/05/17 02:38:09;;;;;;;1.50;0.60;;;16.30;56.80;;;;;;5030811;28;20033;-68
2021/05/17 02:40:35;;;;;;;1.75;0.60;;;16.30;56.70;;;;;;5015272;28;20033;-68
2021/05/17 02:43:08;;;;;;;0.73;0.45;;;16.30;56.70;;;;;;5015525;28;20038;-68
2021/05/17 02:45:35;;;;;;;0.82;0.40;;;16.40;56.90;;;;;;5025890;28;20048;-68
2021/05/17 02:48:03;;;;;;;0.65;0.52;;;16.40;57.00;;;;;;5035179;28;20021;-68
2021/05/17 02:50:34;;;;;;;1.85;0.70;;;16.40;57.10;;;;;;5034891;28;20068;-68
2021/05/17 02:53:02;;;;;;;1.63;0.63;;;16.40;56.90;;;;;;5035407;28;20375;-68
2021/05/17 02:55:32;;;;;;;1.40;0.70;;;16.30;56.80;;;;;;5035004;28;20026;-68
2021/05/17 02:58:07;;;;;;;1.45;0.75;;;16.30;56.80;;;;;;5034995;28;20108;-68
2021/05/17 03:00:37;;;;;;;0.82;0.45;;;16.30;56.90;;;;;;5014143;28;20041;-68
2021/05/17 03:03:16;;;;;;;1.25;0.75;;;16.30;56.80;;;;;;5015344;28;20498;-68
2021/05/17 03:05:45;;;;;;;2.15;0.68;;;16.30;56.70;;;;;;5014959;28;20026;-68
2021/05/17 03:08:16;;;;;;;1.50;0.68;;;16.30;56.90;;;;;;5014688;28;20452;-68
2021/05/17 03:10:45;;;;;;;1.58;0.55;;;16.30;56.90;;;;;;5014911;28;20032;-68
2021/05/17 03:13:14;;;;;;;0.93;0.50;;;16.30;56.90;;;;;;5014867;28;20048;-68
2021/05/17 03:15:42;;;;;;;2.05;0.57;;;16.30;56.90;;;;;;5014715;28;20056;-68
2021/05/17 03:18:08;;;;;;;1.38;0.57;;;16.20;56.70;;;;;;5014811;28;20021;-68
2021/05/17 03:20:35;;;;;;;2.28;0.52;;;16.20;56.70;;;;;;5013358;28;20045;-68
2021/05/17 03:23:14;;;;;;;0.70;0.50;;;16.20;57.20;;;;;;5014402;28;20069;-68
2021/05/17 03:25:47;;;;;;;0.80;0.60;;;16.20;56.90;;;;;;5014597;28;20096;-68
2021/05/17 03:28:13;;;;;;;1.42;0.60;;;16.10;57.10;;;;;;5014691;28;20026;-68
2021/05/17 03:30:38;;;;;;;2.95;0.70;;;16.10;56.90;;;;;;5018741;28;20026;-68
2021/05/17 03:33:04;;;;;;;2.65;0.80;;;16.00;56.90;;;;;;5014704;28;20407;-68
2021/05/17 03:35:31;;;;;;;2.53;0.63;;;16.00;57.10;;;;;;5013778;28;20029;-68
2021/05/17 03:37:56;;;;;;;1.35;0.63;;;16.00;57.10;;;;;;5013324;28;20391;-68
2021/05/17 03:40:22;;;;;;;2.58;0.70;;;15.90;57.20;;;;;;5012813;28;20026;-68
2021/05/17 03:42:48;;;;;;;1.08;0.70;;;15.90;57.30;;;;;;5013009;28;20030;-68
2021/05/17 03:45:15;;;;;;;1.60;0.50;;;15.90;57.40;;;;;;5013910;28;20030;-68
2021/05/17 03:47:41;;;;;;;1.63;0.45;;;15.90;57.60;;;;;;5014292;28;20033;-68
2021/05/17 03:50:09;;;;;;;1.00;0.45;;;15.90;57.90;;;;;;5014006;28;20560;-68
2021/05/17 03:52:38;;;;;;;2.50;1.10;;;15.90;58.00;;;;;;5014027;28;20061;-68
2021/05/17 03:55:06;;;;;;;2.88;1.10;;;16.00;58.20;;;;;;5014321;28;20049;-68
2021/05/17 03:57:32;;;;;;;1.33;0.40;;;16.00;58.10;;;;;;5021849;28;20026;-68
2021/05/17 03:59:57;;;;;;;1.85;0.77;;;16.00;58.10;;;;;;5032963;28;20049;-68
2021/05/17 04:02:24;;;;;;;1.75;0.70;;;16.00;58.00;;;;;;5032797;28;20037;-68
2021/05/17 04:15:35;;;;;;;1.52;0.50;;;16.20;57.70;;;;;;5013767;28;20124;-68
2021/05/17 04:18:01;;;;;;;2.95;0.65;;;16.30;57.40;;;;;;5013814;28;20101;-68
2021/05/17 04:20:27;;;;;;;0.52;0.50;;;16.30;57.40;;;;;;5013615;28;20026;-68
2021/05/17 04:22:53;;;;;;;3.50;0.68;;;16.40;57.40;;;;;;5013603;28;20030;-68
2021/05/17 04:25:18;;;;;;;0.60;0.40;;;16.40;57.30;;;;;;5013654;28;20041;-68
2021/05/17 04:27:44;;;;;;;2.33;1.00;;;16.40;57.10;;;;;;5015973;28;20144;-68
2021/05/17 04:30:11;;;;;;;3.03;0.40;;;16.40;57.10;;;;;;5033131;28;20029;-68
2021/05/17 04:32:37;;;;;;;1.38;0.47;;;16.50;57.20;;;;;;5028371;28;20022;-68
2021/05/17 04:35:03;;;;;;;2.25;0.70;;;16.50;57.20;;;;;;5028389;28;20407;-68
2021/05/17 04:37:29;;;;;;;0.70;0.50;;;16.50;57.20;;;;;;5013484;28;20125;-68
2021/05/17 04:39:55;;;;;;;2.85;0.82;;;16.60;57.30;;;;;;5013222;28;20488;-68
2021/05/17 04:42:20;;;;;;;5.63;1.10;;;16.60;57.30;;;;;;5013380;28;20034;-68
2021/05/17 04:44:46;;;;;;;3.22;0.80;;;16.60;56.80;;;;;;5013256;28;20109;-68
2021/05/17 04:47:12;;;;;;;0.98;0.68;;;16.60;56.80;;;;;;5013326;28;20022;-68
2021/05/17 04:49:38;;;;;;;2.17;1.23;;;16.60;56.70;;;;;;5012802;28;20121;-68
2021/05/17 04:52:04;;;;;;;2.30;0.88;;;16.60;56.80;;;;;;5013206;28;20113;-68
2021/05/17 04:54:30;;;;;;;1.55;0.95;;;16.70;56.80;;;;;;5013222;28;20026;-68
2021/05/17 04:56:56;;;;;;;3.20;0.80;;;16.80;56.90;;;;;;5013228;28;20026;-68
2021/05/17 04:59:21;;;;;;;0.50;0.50;;;16.70;56.80;;;;;;5013120;28;20052;-68
2021/05/17 05:01:47;;;;;;;1.02;0.52;;;16.80;56.30;;;;;;5013241;28;20061;-68
2021/05/17 05:04:13;;;;;;;3.00;0.60;;;16.80;55.60;;;;;;5012096;28;20018;-68
2021/05/17 05:06:39;;;;;;;1.33;0.50;;;16.80;55.00;;;;;;5013024;28;20026;-68
2021/05/17 05:09:05;;;;;;;0.85;0.50;;;16.80;55.00;;;;;;5018771;28;20427;-69
2021/05/17 05:11:30;;;;;;;3.33;1.02;;;16.80;55.20;;;;;;5032495;28;20029;-68
2021/05/17 05:13:56;;;;;;;3.05;0.73;;;16.90;55.20;;;;;;5032760;28;20097;-68
2021/05/17 05:16:22;;;;;;;3.10;0.30;;;16.90;54.80;;;;;;5032627;28;20054;-68
2021/05/17 05:18:48;;;;;;;2.45;0.70;;;16.90;54.70;;;;;;5018230;28;20034;-68
2021/05/17 05:21:13;;;;;;;1.02;0.50;;;16.90;54.70;;;;;;5012928;28;20030;-68
2021/05/17 05:23:39;;;;;;;5.80;0.55;;;16.90;54.70;;;;;;5012455;28;20085;-68
2021/05/17 05:33:51;;;;;;;0.40;0.40;;;17.00;54.10;;;;;;5035035;28;20017;-68
2021/05/17 05:36:17;;;;;;;2.90;0.57;;;17.00;53.50;;;;;;5032334;28;20502;-68
2021/05/17 05:38:43;;;;;;;0.77;0.40;;;17.00;53.40;;;;;;5032103;28;20073;-68
2021/05/17 05:41:09;;;;;;;0.47;0.20;;;17.00;53.30;;;;;;5031417;28;20193;-68
2021/05/17 05:43:35;;;;;;;1.17;0.50;;;17.00;53.30;;;;;;5032842;28;20105;-68
2021/05/17 05:46:01;;;;;;;2.28;0.52;;;17.00;53.50;;;;;;5035990;28;20104;-68
2021/05/17 05:48:26;;;;;;;1.52;0.70;;;17.00;53.40;;;;;;5035995;28;20039;-69
2021/05/17 05:50:52;;;;;;;0.60;0.40;;;17.00;53.50;;;;;;5034468;28;20116;-68
2021/05/17 05:53:18;;;;;;;0.30;0.30;;;17.10;53.70;;;;;;5035875;28;20021;-68
2021/05/17 05:55:45;;;;;;;0.57;0.30;;;17.10;53.60;;;;;;5026138;28;20061;-68
2021/05/17 05:58:12;;;;;;;3.40;0.50;;;17.10;53.90;;;;;;5016049;28;20026;-69
2021/05/17 06:00:38;;;;;;;1.40;1.30;;;17.10;53.40;;;;;;5016072;28;20025;-69
2021/05/17 06:03:05;;;;;;;0.70;0.40;;;17.20;53.50;;;;;;5031614;28;20479;-69
2021/05/17 06:05:31;;;;;;;2.15;0.47;;;17.20;53.20;;;;;;5017931;28;20030;-70
2021/05/17 06:07:59;;;;;;;6.97;0.30;;;17.20;52.80;;;;;;5034087;28;20017;-69
2021/05/17 06:10:25;;;;;;;1.83;0.52;;;17.20;52.90;;;;;;5028918;28;20049;-69
2021/05/17 06:12:52;;;;;;;0.95;0.30;;;17.30;53.00;;;;;;5015869;28;20022;-69
2021/05/17 06:15:19;;;;;;;2.50;0.70;;;17.30;52.70;;;;;;5015662;28;20026;-68
2021/05/17 06:17:46;;;;;;;2.13;0.60;;;17.30;52.90;;;;;;5015514;28;20038;-68
2021/05/17 06:20:13;;;;;;;0.30;0.20;;;17.40;52.70;;;;;;5015734;28;20032;-68
2021/05/17 06:22:40;;;;;;;1.00;0.30;;;17.50;52.60;;;;;;5015468;28;20092;-68
2021/05/17 06:25:11;;;;;;;2.08;0.50;;;17.60;52.70;;;;;;5023650;28;20026;-69
2021/05/17 06:27:38;;;;;;;2.35;0.40;;;17.70;52.40;;;;;;5035324;28;20033;-68
2021/05/17 06:30:07;;;;;;;2.80;0.43;;;17.70;52.30;;;;;;5032045;28;20022;-68
2021/05/17 06:32:36;;;;;;;1.88;0.40;;;17.80;52.00;;;;;;5030844;28;20516;-68
2021/05/17 06:35:03;;;;;;;2.20;0.82;;;17.90;51.60;;;;;;5034541;28;20112;-68
2021/05/17 06:37:29;;;;;;;1.08;0.35;;;18.00;51.60;;;;;;5035017;28;20390;-68
2021/05/17 06:39:55;;;;;;;0.43;0.20;;;18.00;51.00;;;;;;5035114;28;20100;-68
2021/05/17 06:42:21;;;;;;;1.38;0.35;;;18.10;50.70;;;;;;5034901;28;20168;-68
2021/05/17 06:44:47;;;;;;;0.65;0.60;;;18.00;50.60;;;;;;5034228;28;20116;-68
2021/05/17 06:47:13;;;;;;;2.50;0.50;;;18.00;50.70;;;;;;5030531;28;20132;-68
2021/05/17 06:49:39;;;;;;;1.00;0.40;;;18.10;51.00;;;;;;5030119;28;20048;-68
2021/05/17 06:52:07;;;;;;;2.25;0.45;;;18.10;50.70;;;;;;5034254;28;20030;-68
2021/05/17 06:54:33;;;;;;;1.15;0.47;;;18.10;50.60;;;;;;5020776;28;20049;-69
2021/05/17 06:59:41;;;;;;;2.08;0.60;;;18.00;50.20;;;;;;5015099;28;20030;-68
2021/05/17 07:02:28;;;;;;;3.50;0.43;;;17.90;50.10;;;;;;5029732;28;20025;-68
2021/05/17 07:04:57;;;;;;;3.65;0.60;;;17.80;50.20;;;;;;5034320;28;20422;-68
2021/05/17 07:13:05;;;;;;;1.58;0.60;;;17.80;50.30;;;;;;5034157;28;20032;-68
2021/05/17 07:15:30;;;;;;;3.03;0.77;;;17.70;50.40;;;;;;5022808;28;20033;-68
2021/05/17 07:17:56;;;;;;;3.42;0.77;;;17.70;50.50;;;;;;5036312;28;20025;-68
2021/05/17 07:20:26;;;;;;;2.85;0.90;;;17.70;50.70;;;;;;5014523;28;20045;-68
2021/05/17 07:25:36;;;;;;;3.28;0.95;;;17.70;50.70;;;;;;5014142;28;20053;-68
2021/05/17 07:28:02;;;;;;;3.05;0.70;;;17.70;50.50;;;;;;5014035;28;20479;-68
2021/05/17 07:30:28;;;;;;;1.40;0.70;;;17.70;50.50;;;;;;5013973;28;20114;-68
2021/05/17 07:32:54;;;;;;;1.20;0.60;;;17.70;50.70;;;;;;5015259;28;20018;-68
2021/05/17 07:35:19;;;;;;;2.63;0.73;;;17.70;50.80;;;;;;5017447;28;20033;-68
2021/05/17 07:37:46;;;;;;;2.40;0.63;;;17.80;50.80;;;;;;5030706;28;20108;-68
2021/05/17 07:40:12;;;;;;;6.35;0.77;;;17.80;51.30;;;;;;5032742;28;20021;-68
2021/05/17 07:42:38;;;;;;;3.90;1.17;;;17.90;50.30;;;;;;5032736;28;20029;-68
2021/05/17 07:45:05;;;;;;;3.67;1.30;;;18.00;49.80;;;;;;5033812;28;20105;-68
2021/05/17 07:47:30;;;;;;;1.63;0.40;;;18.00;49.50;;;;;;5033865;28;20029;-68
2021/05/17 07:49:56;;;;;;;9.98;0.98;;;18.10;49.30;;;;;;5033778;28;20042;-68
2021/05/17 07:52:22;;;;;;;3.08;0.77;;;18.20;49.50;;;;;;5033715;28;20096;-69
2021/05/17 07:54:48;;;;;;;5.13;0.55;;;18.30;50.00;;;;;;5033884;28;20029;-68
2021/05/17 07:57:15;;;;;;;2.08;0.52;;;18.30;49.10;;;;;;5033695;28;20055;-69
2021/05/17 07:59:41;;;;;;;1.58;0.55;;;18.40;49.00;;;;;;5033704;28;20029;-68
2021/05/17 08:02:07;;;;;;;2.13;0.60;;;18.40;48.60;;;;;;5033018;28;20033;-69
2021/05/17 08:04:33;;;;;;;3.80;1.02;;;18.30;48.70;;;;;;5031127;28;20029;-68
2021/05/17 08:06:59;;;;;;;1.52;0.43;;;18.40;48.80;;;;;;5033000;28;20028;-68
2021/05/17 08:09:25;;;;;;;1.80;0.40;;;18.30;48.50;;;;;;5033726;28;20029;-69
2021/05/17 08:11:51;;;;;;;2.42;0.77;;;18.30;48.60;;;;;;5033371;28;20026;-68
2021/05/17 08:14:18;;;;;;;3.53;0.40;;;18.30;49.60;;;;;;5021745;28;20026;-68
2021/05/17 08:16:44;;;;;;;1.10;0.40;;;18.20;49.40;;;;;;5013649;28;20080;-68
2021/05/17 08:19:10;;;;;;;1.48;0.60;;;18.30;49.70;;;;;;5013628;28;20037;-68
2021/05/17 08:21:36;;;;;;;1.13;0.47;;;18.20;49.10;;;;;;5013553;28;20030;-68
2021/05/17 08:24:02;;;;;;;3.08;0.52;;;18.20;49.50;;;;;;5013634;28;20077;-68
2021/05/17 08:26:28;;;;;;;2.08;0.57;;;18.20;50.00;;;;;;5013307;28;20030;-68
2021/05/17 08:28:54;;;;;;;0.98;0.30;;;18.20;51.00;;;;;;5013345;28;20101;-69
2021/05/17 08:31:22;;;;;;;0.65;0.40;;;18.20;51.50;;;;;;5013589;28;20053;-69
2021/05/17 08:33:49;;;;;;;4.03;0.57;;;18.10;52.50;;;;;;5013697;28;20060;-68
2021/05/17 08:36:15;;;;;;;2.53;0.90;;;18.00;53.40;;;;;;5013374;28;20075;-68
2021/05/17 08:38:42;;;;;;;0.82;0.38;;;17.90;55.70;;;;;;5013326;28;20084;-69
2021/05/17 08:41:12;;;;;;;2.40;0.57;;;17.80;55.80;;;;;;5012069;28;20064;-68
2021/05/17 08:43:40;;;;;;;1.90;0.68;;;17.60;56.30;;;;;;5013286;28;20026;-69
2021/05/17 08:46:09;;;;;;;3.55;0.95;;;17.50;56.20;;;;;;5013202;28;20541;-68
2021/05/17 08:48:46;;;;;;;1.42;0.65;;;17.40;56.50;;;;;;5013208;28;20022;-69
2021/05/17 08:51:19;;;;;;;1.58;0.80;;;17.40;57.40;;;;;;5013342;28;20038;-69
2021/05/17 08:53:46;;;;;;;1.85;0.55;;;17.40;56.90;;;;;;5013340;28;20109;-69
2021/05/17 08:56:12;;;;;;;2.63;0.85;;;17.40;58.10;;;;;;5013178;28;20054;-70
2021/05/17 08:58:38;;;;;;;3.75;0.70;;;17.60;59.40;;;;;;5013205;28;20510;-70
2021/05/17 09:01:04;;;;;;;2.15;0.60;;;17.70;58.30;;;;;;5013241;28;20045;-69
2021/05/17 09:03:30;;;;;;;2.28;0.55;;;17.90;58.70;;;;;;5013551;28;20049;-71
2021/05/17 09:05:56;;;;;;;1.42;0.50;;;18.10;59.00;;;;;;5028177;28;20476;-70
2021/05/17 09:08:25;;;;;;;3.45;0.60;;;18.30;59.20;;;;;;5013019;28;20056;-70
2021/05/17 09:10:52;;;;;;;1.63;0.45;;;18.50;58.60;;;;;;5013121;28;20022;-71
2021/05/17 09:13:18;;;;;;;1.77;0.65;;;18.70;57.80;;;;;;5013044;28;20050;-70
2021/05/17 09:15:54;;;;;;;5.47;1.00;;;18.90;57.20;;;;;;5013116;28;20175;-71
2021/05/17 09:18:22;;;;;;;2.30;0.98;;;19.10;57.30;;;;;;5015127;28;20026;-71
2021/05/17 09:20:52;;;;;;;1.52;0.57;;;19.30;55.70;;;;;;5017101;28;20104;-71
2021/05/17 09:23:31;;;;;;;2.10;0.73;;;19.40;55.20;;;;;;5016988;28;20045;-71
2021/05/17 09:26:17;;;;;;;1.50;0.60;;;19.60;56.00;;;;;;5017064;28;20026;-71
2021/05/17 09:28:51;;;;;;;1.92;0.63;;;19.80;55.90;;;;;;5016963;28;20052;-71
2021/05/17 09:31:17;;;;;;;;;;;20.10;55.50;;;;;;5017522;28;20022;-72
2021/05/17 09:33:43;;;;;;;2.97;0.60;;;20.20;54.60;;;;;;5015822;28;19905;-72
2021/05/17 09:36:29;;;;;;;1.70;0.60;;;20.40;53.30;;;;;;5016752;28;20526;-71
2021/05/17 09:38:57;;;;;;;1.88;0.70;;;20.50;53.40;;;;;;5016696;28;20041;-71
2021/05/17 09:41:23;;;;;;;1.90;0.90;;;20.70;53.10;;;;;;5016508;28;20424;-71
2021/05/17 09:43:49;;;;;;;2.08;1.10;;;20.80;53.00;;;;;;5016694;28;20104;-72
2021/05/17 09:46:15;;;;;;;2.40;0.98;;;20.90;52.40;;;;;;5016500;28;20388;-72
2021/05/17 09:48:48;;;;;;;2.67;0.93;;;21.10;53.20;;;;;;5016315;28;20033;-72
2021/05/17 09:51:16;;;;;;;1.73;0.60;;;21.20;50.80;;;;;;5016616;28;20105;-71
2021/05/17 09:53:47;;;;;;;1.83;0.73;;;21.20;50.10;;;;;;5016487;28;20014;-71
2021/05/17 09:56:23;;;;;;;0.98;0.30;;;21.00;48.90;;;;;;5016436;28;20037;-71
2021/05/17 09:58:55;;;;;;;1.30;0.45;;;20.80;48.50;;;;;;5015206;28;20030;-72
2021/05/17 10:01:27;;;;;;;4.38;0.75;;;20.70;49.00;;;;;;5031538;28;20029;-71
2021/05/17 10:04:00;;;;;;;0.85;0.40;;;20.70;49.20;;;;;;5016662;28;20146;-71
2021/05/17 10:06:26;;;;;;;1.75;0.40;;;20.70;50.30;;;;;;5016333;28;20041;-70
2021/05/17 10:08:54;;;;;;;0.85;0.50;;;20.80;48.50;;;;;;5016362;28;20089;-69
2021/05/17 10:11:22;;;;;;;1.48;0.40;;;20.80;49.60;;;;;;5016170;28;20396;-69
2021/05/17 10:13:48;;;;;;;1.10;0.40;;;20.80;47.90;;;;;;5016129;28;20380;-68
2021/05/17 10:16:16;;;;;;;1.63;0.73;;;20.70;48.40;;;;;;5016494;28;20026;-68
2021/05/17 10:18:43;;;;;;;3.13;0.73;;;20.80;50.30;;;;;;5016080;28;20125;-68
2021/05/17 10:21:12;;;;;;;2.15;0.90;;;20.90;49.60;;;;;;5016052;28;20026;-69
2021/05/17 10:23:40;;;;;;;3.50;0.68;;;21.00;49.50;;;;;;5015888;28;20384;-69
2021/05/17 10:26:11;;;;;;;2.20;0.80;;;21.10;49.20;;;;;;5015929;28;20022;-69
2021/05/17 10:28:39;;;;;;;2.15;0.70;;;21.20;47.60;;;;;;5015884;28;20135;-68
2021/05/17 10:31:11;;;;;;;1.13;0.43;;;21.40;48.00;;;;;;5015272;28;20071;-68
2021/05/17 10:33:37;;;;;;;2.08;0.60;;;21.60;47.90;;;;;;5015935;28;20072;-68
2021/05/17 10:36:05;;;;;;;1.40;0.50;;;21.80;48.30;;;;;;5015903;28;20109;-68
2021/05/17 10:38:45;;;;;;;2.03;0.70;;;21.90;46.40;;;;;;5015900;28;20022;-68
2021/05/17 10:46:51;;;;;;;8.18;1.10;;;22.20;43.60;;;;;;5015645;28;20045;-68
2021/05/17 10:49:38;;;;;;;2.47;0.98;;;22.30;43.70;;;;;;5015403;28;20120;-68
2021/05/17 10:52:07;;;;;;;1.77;0.70;;;22.30;42.80;;;;;;5015728;28;20022;-69
2021/05/17 10:54:38;;;;;;;3.30;0.80;;;22.30;42.50;;;;;;5015442;28;20091;-70
2021/05/17 10:57:30;;;;;;;5.03;1.00;;;22.50;43.30;;;;;;5015631;28;20472;-68
2021/05/17 11:02:43;;;;;;;2.53;0.80;;;22.60;40.90;;;;;;5015658;28;20057;-69
2021/05/17 11:05:15;;;;;;;6.43;1.00;;;22.60;41.30;;;;;;5022383;28;20045;-69
2021/05/17 11:07:47;;;;;;;2.20;0.75;;;22.70;40.90;;;;;;5015110;28;20399;-69
2021/05/17 11:10:26;;;;;;;2.78;0.85;;;22.70;40.00;;;;;;5015285;28;20498;-69
2021/05/17 11:12:52;;;;;;;3.28;0.63;;;22.70;40.10;;;;;;5033319;28;20076;-69
2021/05/17 11:15:20;;;;;;;2.72;0.95;;;22.70;39.70;;;;;;5032758;28;20053;-68
2021/05/17 11:17:52;;;;;;;2.60;0.90;;;22.70;40.20;;;;;;5021293;28;20391;-68
2021/05/17 11:23:05;;;;;;;1.15;0.50;;;22.50;39.20;;;;;;5015075;28;20365;-69
2021/05/17 11:26:01;;;;;;;1.90;0.75;;;22.30;40.20;;;;;;5016798;28;20030;-71
2021/05/17 11:28:47;;;;;;;4.65;0.60;;;22.10;41.00;;;;;;5034705;28;20028;-70
2021/05/17 11:31:28;;;;;;;2.25;0.50;;;21.90;40.80;;;;;;5028398;28;20026;-70
2021/05/17 11:33:54;;;;;;;2.08;0.45;;;21.90;40.60;;;;;;5025204;28;20502;-70
2021/05/17 11:36:43;;;;;;;2.30;0.40;;;21.90;41.20;;;;;;5024377;28;20030;-69
2021/05/17 11:39:10;;;;;;;2.40;0.60;;;21.90;41.20;;;;;;5014970;28;20026;-70
2021/05/17 11:41:48;;;;;;;2.95;0.68;;;22.10;41.20;;;;;;5013836;28;20026;-69
2021/05/17 11:44:24;;;;;;;4.07;0.50;;;22.20;41.00;;;;;;5014793;28;20529;-70
2021/05/17 11:46:53;;;;;;;2.83;0.80;;;22.40;41.70;;;;;;5027209;28;20038;-71
2021/05/17 11:49:21;;;;;;;2.53;0.80;;;22.70;40.90;;;;;;5034064;28;20033;-72
2021/05/17 11:51:49;;;;;;;1.73;0.52;;;22.80;40.30;;;;;;5020167;28;20062;-70
2021/05/17 11:54:16;;;;;;;3.90;0.50;;;23.00;40.40;;;;;;5014409;28;20526;-73
2021/05/17 11:57:09;;;;;;;2.15;0.57;;;23.10;40.40;;;;;;5014389;28;20052;-69
2021/05/17 11:59:35;;;;;;;2.70;0.63;;;23.30;40.20;;;;;;5014907;28;20066;-70
2021/05/17 12:02:04;;;;;;;9.00;1.58;;;23.30;39.20;;;;;;5020662;28;20079;-69
2021/05/17 12:04:38;;;;;;;1.35;0.65;;;23.20;41.00;;;;;;5019775;28;20033;-69
2021/05/17 12:07:10;;;;;;;3.97;0.80;;;22.90;48.30;;;;;;5026608;28;20022;-69
2021/05/17 12:09:38;;;;;;;5.78;1.00;;;22.60;46.40;;;;;;5014106;28;20033;-69
2021/05/17 12:12:18;;;;;;;1.08;0.32;;;22.30;45.50;;;;;;5014734;28;20021;-68
2021/05/17 12:14:51;;;;;;;1.40;0.50;;;21.90;44.80;;;;;;5018153;28;20017;-69
2021/05/17 12:17:25;;;;;;;5.03;1.33;;;21.80;46.30;;;;;;5033644;28;20046;-69
2021/05/17 12:19:59;;;;;;;2.35;0.73;;;21.70;46.60;;;;;;5032843;28;20030;-69
2021/05/17 12:22:36;;;;;;;1.38;0.52;;;21.70;47.70;;;;;;5012418;28;20372;-69
2021/05/17 12:25:14;;;;;;;3.53;0.90;;;21.80;46.90;;;;;;5013148;28;20109;-69
2021/05/17 12:27:41;;;;;;;1.20;0.47;;;21.90;45.80;;;;;;5023268;28;20033;-69
2021/05/17 12:30:10;;;;;;;2.38;0.45;;;22.00;44.90;;;;;;5019953;28;20026;-69
2021/05/17 12:32:49;;;;;;;0.63;0.20;;;22.10;45.20;;;;;;5027635;28;20018;-69
2021/05/17 12:35:16;;;;;;;2.05;0.60;;;22.20;44.40;;;;;;5030852;28;20025;-69
2021/05/17 12:37:45;;;;;;;1.83;0.47;;;22.30;42.70;;;;;;5013598;28;20022;-69
2021/05/17 12:40:30;;;;;;;1.27;0.30;;;22.40;43.20;;;;;;5011906;28;20037;-69
2021/05/17 12:43:04;;;;;;;2.10;0.73;;;22.70;43.80;;;;;;5013145;28;20028;-69
2021/05/17 12:45:31;;;;;;;7.00;0.93;;;23.00;42.10;;;;;;5016010;28;20029;-69
2021/05/17 12:47:57;;;;;;;3.42;0.50;;;23.10;40.10;;;;;;5013061;28;20029;-69
2021/05/17 12:50:24;;;;;;;1.05;0.47;;;23.20;39.80;;;;;;5030615;28;20546;-69
2021/05/17 12:53:04;;;;;;;4.55;0.60;;;23.30;39.90;;;;;;5049846;28;20098;-69
2021/05/17 12:55:38;;;;;;;1.08;0.30;;;23.40;40.60;;;;;;5014791;28;20029;-69
2021/05/17 12:58:03;;;;;;;0.75;0.40;;;23.60;39.60;;;;;;5019371;28;20025;-69
2021/05/17 13:00:35;;;;;;;1.25;0.43;;;23.70;38.10;;;;;;5014957;28;20056;-69
2021/05/17 13:03:07;;;;;;;2.15;0.40;;;23.70;38.10;;;;;;5030291;28;20029;-69
2021/05/17 13:05:56;;;;;;;1.08;0.40;;;23.60;37.60;;;;;;5032408;28;20118;-69
2021/05/17 13:08:28;;;;;;;0.55;0.30;;;23.50;38.20;;;;;;5028236;28;20021;-69
2021/05/17 13:11:03;;;;;;;2.13;0.75;;;23.50;38.40;;;;;;5015190;28;20494;-69
2021/05/17 13:13:52;;;;;;;1.40;0.60;;;23.50;39.00;;;;;;5018031;28;20022;-69
2021/05/17 13:16:28;;;;;;;0.45;0.20;;;23.50;38.40;;;;;;5014458;28;20105;-69
2021/05/17 13:32:39;;;;;;;1.15;0.40;;;23.80;37.80;;;;;;5032513;28;20042;-69
2021/05/17 13:35:08;;;;;;;2.10;0.50;;;24.00;37.40;;;;;;5029551;28;20033;-69
2021/05/17 13:37:34;;;;;;;1.35;0.43;;;24.20;36.40;;;;;;5012266;28;20116;-69
2021/05/17 13:40:00;;;;;;;4.85;0.65;;;24.40;35.70;;;;;;5011816;28;20065;-69
2021/05/17 13:42:26;;;;;;;1.55;0.57;;;24.60;35.00;;;;;;5025509;28;20025;-69
2021/05/17 13:44:52;;;;;;;2.25;0.38;;;24.70;34.20;;;;;;5032030;28;20029;-69
2021/05/17 13:47:18;;;;;;;9.55;1.48;;;24.60;33.20;;;;;;5021319;28;20117;-69
2021/05/17 13:49:44;;;;;;;3.95;0.77;;;24.30;41.00;;;;;;5015441;28;20124;-73